サンフアン の空港の天気 - METARとTAF

ルイス・ムニョス・マリン国際空港 ( TJSJ / SJU ) - プエルトリコ サンフアン
飛行場実況気象(Metar)
観測時間09/24 21:56 AST (09/25 01:56 UTC)
風向・風速東南東 3m/s
視程10km以上
天気現象弱い雨
少しの雲 雲底高度 880m
全天の4割程度の雲 雲底高度 2130m
全天の4割程度の雲 雲底高度 2440m
気温26.7℃
湿度85%
気圧1016.5hPa
METARTJSJ 250156Z 11005KT 9SM -RA FEW029 SCT070 SCT080 27/24 A3002 RMK AO2 RAB30 SLP165 P0001 T02670239
過去の天気等 Google飛行場航空写真 Wunderground天気予報

過去48時間のMETAR

飛行場予報(TAF)
発表時間: 9/24 21:52 AST (9/25 01:52 UTC)
予報対象時間: 24日22時 AST ~ 25日20時 AST
風向・風速南東 2m/s
視程10km以上
天気現象周辺でしゅう雨
少しの雲 雲底高度 760m
全天の4割程度の雲 雲底高度 1220m
25日11時 AST から
風向・風速東北東 7m/s
視程10km以上
天気現象周辺で雷
全天の4割程度の積乱雲 雲底高度 760m
全天の8割程度の雲 雲底高度 1830m
25日19時 AST から
風向・風速東 3m/s
視程10km以上
全天の4割程度の雲 雲底高度 910m
全天の4割程度の雲 雲底高度 1830m
TJSJ 250152Z 2502/2524 13004KT P6SM VCSH FEW025 SCT040
FM251500 07014KT P6SM VCTS SCT025CB BKN060
FM252300 10006KT P6SM SCT030 SCT060